Etusivu
Satelliittikuvat 10 päivän ennusteetIlmastoMerisää Syklonit Salamointi LentoasematUKK Uutiskirje Muuta
Sää : Eurooppa Afrikka Pohjois-Amerikka Etelä-Amerikka Aasia Australia-Oseania Muut
Kielet Yhteydenotto

Kittilä, Suomi

Kittilän lentoasema

Leveyspiiri: 67-42N, Pituuspiiri: 024-51E, korkeus merenpinnasta: 196 m


METAR: EFKT 301950Z 16009KT 5000 -RASN OVC005 00/00 Q0988 R16/19//95
TAF: EFKT 301735Z 3018/3022 17012KT 9000 -SN BKN006 OVC008 TEMPO 3018/3022 6000 -SN

Aika: 23:01 (20:01 UTC)

Tämänhetkinen sää

Tämä raportti tehtiin 11 minuuttia sitten, kello 19.50 UTC
Tuuli 9 kn etelästä/kaakosta
Lämpötila 0°C
Kosteus 100%
Ilmanpaine 988 hPa
Näkyvyys: 5000 m
Pilvistä 500 ft:n korkeudessa
heikkoa sadetta, lumisadetta

Muuta yksikköjä

Sääennuste

Tämä raportti tehtiin 2 tuntia ja 26 minuuttia sitten, kello 17.35 UTC
Ennuste voimassa 30. päivästä klo 18 UTC - 30. päivään klo 22 UTC
Tuuli 12 kn etelästä
Näkyvyys: 9000 m
Hajonneita pilviä 600 ft:n korkeudessa
Pilvistä 800 ft:n korkeudessa
heikkoa lumisadetta
Ajoittain
30. päivästä klo 18 UTC - 30. päivään klo 22 UTC
Näkyvyys: 6000 m
heikkoa lumisadetta
Tällä sivustolla oleviin tietoihin sovelletaan vastuuvapauslauseketta
Sää : Eurooppa Afrikka Pohjois-Amerikka Etelä-Amerikka Aasia Australia-Oseania Muut
Satelliittikuvat 10 päivän ennusteetIlmastoMerisää Syklonit Salamointi LentoasematUKK Kielet Yhteydenotto Uutiskirje Muuta